sensor_id;sensor_type;location;lat;lon;timestamp;temperature;humidity
19232;DHT22;9750;48.730;10.294;2024-03-23T00:53:34;10.80;99.90
19232;DHT22;9750;48.730;10.294;2024-03-23T00:56:00;10.80;99.90
19232;DHT22;9750;48.730;10.294;2024-03-23T00:58:30;10.80;99.90
19232;DHT22;9750;48.730;10.294;2024-03-23T01:00:56;10.80;99.90
19232;DHT22;9750;48.730;10.294;2024-03-23T01:03:24;10.80;99.90
19232;DHT22;9750;48.730;10.294;2024-03-23T01:05:50;10.80;99.90
19232;DHT22;9750;48.730;10.294;2024-03-23T01:08:18;10.80;99.90
19232;DHT22;9750;48.730;10.294;2024-03-23T01:10:54;10.80;99.90
19232;DHT22;9750;48.730;10.294;2024-03-23T01:13:22;10.80;99.90
19232;DHT22;9750;48.730;10.294;2024-03-23T01:15:50;10.80;99.90
19232;DHT22;9750;48.730;10.294;2024-03-23T01:18:18;10.80;99.90
19232;DHT22;9750;48.730;10.294;2024-03-23T01:20:44;10.80;99.90
19232;DHT22;9750;48.730;10.294;2024-03-23T01:23:12;10.80;99.90
19232;DHT22;9750;48.730;10.294;2024-03-23T01:25:38;10.90;99.90
19232;DHT22;9750;48.730;10.294;2024-03-23T01:28:06;10.90;99.90
19232;DHT22;9750;48.730;10.294;2024-03-23T01:30:32;11.00;99.90
19232;DHT22;9750;48.730;10.294;2024-03-23T01:33:02;11.00;99.90
19232;DHT22;9750;48.730;10.294;2024-03-23T01:38:51;11.00;99.90
19232;DHT22;9750;48.730;10.294;2024-03-23T01:41:18;11.00;99.90
19232;DHT22;9750;48.730;10.294;2024-03-23T01:43:45;11.00;99.90
19232;DHT22;9750;48.730;10.294;2024-03-23T01:49:36;11.00;99.90
19232;DHT22;9750;48.730;10.294;2024-03-23T01:52:03;11.00;99.90
19232;DHT22;9750;48.730;10.294;2024-03-23T01:54:30;11.00;99.90
19232;DHT22;9750;48.730;10.294;2024-03-23T01:56:58;11.10;99.90
19232;DHT22;9750;48.730;10.294;2024-03-23T01:59:25;11.00;99.90
19232;DHT22;9750;48.730;10.294;2024-03-23T02:01:53;11.10;99.90
19232;DHT22;9750;48.730;10.294;2024-03-23T02:04:19;11.10;99.90
19232;DHT22;9750;48.730;10.294;2024-03-23T02:06:48;11.10;99.90
19232;DHT22;9750;48.730;10.294;2024-03-23T02:09:14;11.00;99.90
19232;DHT22;9750;48.730;10.294;2024-03-23T02:11:41;11.00;99.90
19232;DHT22;9750;48.730;10.294;2024-03-23T02:14:07;11.00;99.90
19232;DHT22;9750;48.730;10.294;2024-03-23T02:16:35;11.00;99.90
19232;DHT22;9750;48.730;10.294;2024-03-23T02:19:01;11.00;99.90
19232;DHT22;9750;48.730;10.294;2024-03-23T02:21:28;11.00;99.90
19232;DHT22;9750;48.730;10.294;2024-03-23T02:23:59;11.00;99.90
19232;DHT22;9750;48.730;10.294;2024-03-23T02:26:26;10.90;99.90
19232;DHT22;9750;48.730;10.294;2024-03-23T02:28:52;10.90;99.90
19232;DHT22;9750;48.730;10.294;2024-03-23T02:31:19;10.90;99.90
19232;DHT22;9750;48.730;10.294;2024-03-23T02:33:46;10.90;99.90
19232;DHT22;9750;48.730;10.294;2024-03-23T02:36:13;10.80;99.90
19232;DHT22;9750;48.730;10.294;2024-03-23T02:38:39;10.80;99.90
19232;DHT22;9750;48.730;10.294;2024-03-23T02:41:08;10.80;99.90
19232;DHT22;9750;48.730;10.294;2024-03-23T02:43:34;10.80;99.90
19232;DHT22;9750;48.730;10.294;2024-03-23T02:46:01;10.80;99.90
19232;DHT22;9750;48.730;10.294;2024-03-23T02:48:28;10.80;99.90
19232;DHT22;9750;48.730;10.294;2024-03-23T02:50:56;10.80;99.90
19232;DHT22;9750;48.730;10.294;2024-03-23T02:53:22;10.80;99.90
19232;DHT22;9750;48.730;10.294;2024-03-23T02:55:49;10.80;99.90
19232;DHT22;9750;48.730;10.294;2024-03-23T02:58:17;10.80;99.90
19232;DHT22;9750;48.730;10.294;2024-03-23T03:00:44;10.90;99.90
19232;DHT22;9750;48.730;10.294;2024-03-23T03:03:10;10.90;99.90
19232;DHT22;9750;48.730;10.294;2024-03-23T03:05:37;10.90;99.90
19232;DHT22;9750;48.730;10.294;2024-03-23T03:08:04;10.80;99.90
19232;DHT22;9750;48.730;10.294;2024-03-23T03:10:32;10.80;99.90
19232;DHT22;9750;48.730;10.294;2024-03-23T03:13:00;10.90;99.90
19232;DHT22;9750;48.730;10.294;2024-03-23T03:15:29;10.90;99.90
19232;DHT22;9750;48.730;10.294;2024-03-23T03:17:55;10.90;99.90
19232;DHT22;9750;48.730;10.294;2024-03-23T03:20:23;11.00;99.90
19232;DHT22;9750;48.730;10.294;2024-03-23T03:22:49;11.00;99.90
19232;DHT22;9750;48.730;10.294;2024-03-23T03:25:18;11.00;99.90
19232;DHT22;9750;48.730;10.294;2024-03-23T03:27:45;11.00;99.90
19232;DHT22;9750;48.730;10.294;2024-03-23T03:30:13;11.00;99.90
19232;DHT22;9750;48.730;10.294;2024-03-23T03:32:40;11.00;99.90
19232;DHT22;9750;48.730;10.294;2024-03-23T03:35:08;11.00;99.90
19232;DHT22;9750;48.730;10.294;2024-03-23T03:37:34;11.00;99.90
19232;DHT22;9750;48.730;10.294;2024-03-23T03:40:01;11.00;99.90
19232;DHT22;9750;48.730;10.294;2024-03-23T03:42:27;11.00;99.90
19232;DHT22;9750;48.730;10.294;2024-03-23T03:44:55;11.10;99.90
19232;DHT22;9750;48.730;10.294;2024-03-23T03:47:21;11.10;99.90
19232;DHT22;9750;48.730;10.294;2024-03-23T03:49:49;11.10;99.90
19232;DHT22;9750;48.730;10.294;2024-03-23T03:52:16;11.10;99.90
19232;DHT22;9750;48.730;10.294;2024-03-23T03:54:43;11.10;99.90
19232;DHT22;9750;48.730;10.294;2024-03-23T03:57:09;11.10;99.90
19232;DHT22;9750;48.730;10.294;2024-03-23T03:59:36;11.10;99.90
19232;DHT22;9750;48.730;10.294;2024-03-23T04:02:03;11.00;99.90
19232;DHT22;9750;48.730;10.294;2024-03-23T04:04:31;11.10;99.90
19232;DHT22;9750;48.730;10.294;2024-03-23T04:07:02;11.00;99.90
19232;DHT22;9750;48.730;10.294;2024-03-23T04:09:31;11.00;99.90
19232;DHT22;9750;48.730;10.294;2024-03-23T04:11:57;11.00;99.90
19232;DHT22;9750;48.730;10.294;2024-03-23T04:14:24;11.00;99.90
19232;DHT22;9750;48.730;10.294;2024-03-23T04:16:50;11.00;99.90
19232;DHT22;9750;48.730;10.294;2024-03-23T04:19:17;11.00;99.90
19232;DHT22;9750;48.730;10.294;2024-03-23T04:21:44;11.10;99.90
19232;DHT22;9750;48.730;10.294;2024-03-23T04:24:12;11.10;99.90
19232;DHT22;9750;48.730;10.294;2024-03-23T04:26:41;11.10;99.90
19232;DHT22;9750;48.730;10.294;2024-03-23T04:29:08;11.10;99.90
19232;DHT22;9750;48.730;10.294;2024-03-23T04:31:34;11.10;99.90
19232;DHT22;9750;48.730;10.294;2024-03-23T04:34:02;11.10;99.90
19232;DHT22;9750;48.730;10.294;2024-03-23T04:36:28;11.00;99.90
19232;DHT22;9750;48.730;10.294;2024-03-23T04:38:56;11.00;99.90
19232;DHT22;9750;48.730;10.294;2024-03-23T04:41:25;11.00;99.90
19232;DHT22;9750;48.730;10.294;2024-03-23T04:43:52;10.90;99.90
19232;DHT22;9750;48.730;10.294;2024-03-23T04:46:20;10.90;99.90
19232;DHT22;9750;48.730;10.294;2024-03-23T04:48:47;10.80;99.90
19232;DHT22;9750;48.730;10.294;2024-03-23T04:51:20;10.80;99.90
19232;DHT22;9750;48.730;10.294;2024-03-23T04:53:48;10.80;99.90
19232;DHT22;9750;48.730;10.294;2024-03-23T04:56:25;10.80;99.90
19232;DHT22;9750;48.730;10.294;2024-03-23T04:58:51;10.80;99.90
19232;DHT22;9750;48.730;10.294;2024-03-23T05:01:19;10.80;99.90
19232;DHT22;9750;48.730;10.294;2024-03-23T05:03:45;10.80;99.90
19232;DHT22;9750;48.730;10.294;2024-03-23T05:09:09;10.70;99.90
19232;DHT22;9750;48.730;10.294;2024-03-23T05:11:39;10.70;99.90
19232;DHT22;9750;48.730;10.294;2024-03-23T05:14:05;10.70;99.90
19232;DHT22;9750;48.730;10.294;2024-03-23T05:16:32;10.60;99.90
19232;DHT22;9750;48.730;10.294;2024-03-23T05:18:58;10.60;99.90
19232;DHT22;9750;48.730;10.294;2024-03-23T05:21:26;10.60;99.90
19232;DHT22;9750;48.730;10.294;2024-03-23T05:23:54;10.60;99.90
19232;DHT22;9750;48.730;10.294;2024-03-23T05:26:22;10.60;99.90
19232;DHT22;9750;48.730;10.294;2024-03-23T05:28:50;10.60;99.90
19232;DHT22;9750;48.730;10.294;2024-03-23T05:31:23;10.70;99.90
19232;DHT22;9750;48.730;10.294;2024-03-23T05:33:49;10.70;99.90
19232;DHT22;9750;48.730;10.294;2024-03-23T05:36:17;10.70;99.90
19232;DHT22;9750;48.730;10.294;2024-03-23T05:38:43;10.80;99.90
19232;DHT22;9750;48.730;10.294;2024-03-23T05:41:11;10.80;99.90
19232;DHT22;9750;48.730;10.294;2024-03-23T05:43:37;10.90;99.90
19232;DHT22;9750;48.730;10.294;2024-03-23T05:46:05;10.90;99.90
19232;DHT22;9750;48.730;10.294;2024-03-23T05:48:33;10.90;99.90
19232;DHT22;9750;48.730;10.294;2024-03-23T05:51:00;11.00;99.90
19232;DHT22;9750;48.730;10.294;2024-03-23T05:53:26;11.00;99.90
19232;DHT22;9750;48.730;10.294;2024-03-23T05:56:01;11.10;99.90
19232;DHT22;9750;48.730;10.294;2024-03-23T05:58:29;11.10;99.90
19232;DHT22;9750;48.730;10.294;2024-03-23T06:00:58;11.20;99.90
19232;DHT22;9750;48.730;10.294;2024-03-23T06:03:26;11.30;99.90
19232;DHT22;9750;48.730;10.294;2024-03-23T06:05:53;11.30;99.90
19232;DHT22;9750;48.730;10.294;2024-03-23T06:08:20;11.20;99.90
19232;DHT22;9750;48.730;10.294;2024-03-23T06:10:47;11.10;99.90
19232;DHT22;9750;48.730;10.294;2024-03-23T06:13:13;11.00;99.90
19232;DHT22;9750;48.730;10.294;2024-03-23T06:19:04;10.70;99.90
19232;DHT22;9750;48.730;10.294;2024-03-23T06:21:32;10.60;99.90
19232;DHT22;9750;48.730;10.294;2024-03-23T06:23:59;10.50;99.90
19232;DHT22;9750;48.730;10.294;2024-03-23T06:26:26;10.50;99.90
19232;DHT22;9750;48.730;10.294;2024-03-23T06:28:52;10.40;99.90
19232;DHT22;9750;48.730;10.294;2024-03-23T06:31:19;10.30;99.90
19232;DHT22;9750;48.730;10.294;2024-03-23T06:33:45;10.00;99.90
19232;DHT22;9750;48.730;10.294;2024-03-23T06:36:14;9.60;99.90
19232;DHT22;9750;48.730;10.294;2024-03-23T06:38:40;9.30;99.90
19232;DHT22;9750;48.730;10.294;2024-03-23T06:41:08;9.00;99.90
19232;DHT22;9750;48.730;10.294;2024-03-23T06:43:34;8.90;99.90
19232;DHT22;9750;48.730;10.294;2024-03-23T06:46:03;8.70;99.90
19232;DHT22;9750;48.730;10.294;2024-03-23T06:48:29;8.70;99.90
19232;DHT22;9750;48.730;10.294;2024-03-23T06:50:57;8.50;99.90
19232;DHT22;9750;48.730;10.294;2024-03-23T06:53:25;8.40;99.90
19232;DHT22;9750;48.730;10.294;2024-03-23T06:55:53;8.30;99.90
19232;DHT22;9750;48.730;10.294;2024-03-23T06:58:20;8.20;99.90
19232;DHT22;9750;48.730;10.294;2024-03-23T07:00:48;8.10;99.90
19232;DHT22;9750;48.730;10.294;2024-03-23T07:03:14;8.00;99.90
19232;DHT22;9750;48.730;10.294;2024-03-23T07:05:42;7.90;99.90
19232;DHT22;9750;48.730;10.294;2024-03-23T07:08:08;7.90;99.90
19232;DHT22;9750;48.730;10.294;2024-03-23T07:10:39;7.90;99.90
19232;DHT22;9750;48.730;10.294;2024-03-23T07:13:05;7.90;99.90
19232;DHT22;9750;48.730;10.294;2024-03-23T07:18:54;7.90;99.90
19232;DHT22;9750;48.730;10.294;2024-03-23T07:21:21;7.80;99.90
19232;DHT22;9750;48.730;10.294;2024-03-23T07:23:48;7.80;99.90
19232;DHT22;9750;48.730;10.294;2024-03-23T07:26:16;7.70;99.90
19232;DHT22;9750;48.730;10.294;2024-03-23T07:28:43;7.70;99.90
19232;DHT22;9750;48.730;10.294;2024-03-23T07:31:13;7.60;99.90
19232;DHT22;9750;48.730;10.294;2024-03-23T07:33:42;7.70;99.90
19232;DHT22;9750;48.730;10.294;2024-03-23T07:36:10;7.80;99.90
19232;DHT22;9750;48.730;10.294;2024-03-23T07:38:36;7.80;99.90
19232;DHT22;9750;48.730;10.294;2024-03-23T07:41:05;7.80;99.90
19232;DHT22;9750;48.730;10.294;2024-03-23T07:43:32;7.70;99.90
19232;DHT22;9750;48.730;10.294;2024-03-23T07:49:22;7.70;99.90
19232;DHT22;9750;48.730;10.294;2024-03-23T07:51:49;7.80;99.90
19232;DHT22;9750;48.730;10.294;2024-03-23T07:54:15;7.80;99.90
19232;DHT22;9750;48.730;10.294;2024-03-23T07:56:42;7.90;99.90
19232;DHT22;9750;48.730;10.294;2024-03-23T07:59:10;7.80;99.90
19232;DHT22;9750;48.730;10.294;2024-03-23T08:01:38;7.90;99.90
19232;DHT22;9750;48.730;10.294;2024-03-23T08:04:04;7.80;99.90
19232;DHT22;9750;48.730;10.294;2024-03-23T08:06:31;7.80;99.90
19232;DHT22;9750;48.730;10.294;2024-03-23T08:08:58;7.90;99.90
19232;DHT22;9750;48.730;10.294;2024-03-23T08:11:29;7.90;99.90
19232;DHT22;9750;48.730;10.294;2024-03-23T08:13:56;7.90;99.90
19232;DHT22;9750;48.730;10.294;2024-03-23T08:16:25;8.00;99.90
19232;DHT22;9750;48.730;10.294;2024-03-23T08:18:51;7.80;99.90
19232;DHT22;9750;48.730;10.294;2024-03-23T08:21:19;7.80;99.90
19232;DHT22;9750;48.730;10.294;2024-03-23T08:23:45;7.80;99.90
19232;DHT22;9750;48.730;10.294;2024-03-23T08:26:14;7.80;99.90
19232;DHT22;9750;48.730;10.294;2024-03-23T08:28:40;7.90;99.90
19232;DHT22;9750;48.730;10.294;2024-03-23T08:31:09;7.90;99.90
19232;DHT22;9750;48.730;10.294;2024-03-23T08:33:38;7.80;99.90
19232;DHT22;9750;48.730;10.294;2024-03-23T08:36:07;7.80;99.90
19232;DHT22;9750;48.730;10.294;2024-03-23T08:38:34;7.90;99.90
19232;DHT22;9750;48.730;10.294;2024-03-23T08:41:03;8.00;99.90
19232;DHT22;9750;48.730;10.294;2024-03-23T08:43:30;7.90;99.90
19232;DHT22;9750;48.730;10.294;2024-03-23T08:46:03;7.70;99.90
19232;DHT22;9750;48.730;10.294;2024-03-23T08:48:31;7.80;99.90
19232;DHT22;9750;48.730;10.294;2024-03-23T08:51:02;7.80;99.90
19232;DHT22;9750;48.730;10.294;2024-03-23T08:53:28;7.80;99.90
19232;DHT22;9750;48.730;10.294;2024-03-23T08:55:56;7.80;99.90
19232;DHT22;9750;48.730;10.294;2024-03-23T08:58:24;7.80;99.90
19232;DHT22;9750;48.730;10.294;2024-03-23T09:00:51;7.80;99.90
19232;DHT22;9750;48.730;10.294;2024-03-23T09:03:17;7.70;99.90
19232;DHT22;9750;48.730;10.294;2024-03-23T09:05:45;7.80;99.90
19232;DHT22;9750;48.730;10.294;2024-03-23T09:08:13;7.80;99.90
19232;DHT22;9750;48.730;10.294;2024-03-23T09:10:40;7.80;99.90
19232;DHT22;9750;48.730;10.294;2024-03-23T09:13:07;7.80;99.90
19232;DHT22;9750;48.730;10.294;2024-03-23T09:15:35;7.80;99.90
19232;DHT22;9750;48.730;10.294;2024-03-23T09:18:02;7.80;99.90
19232;DHT22;9750;48.730;10.294;2024-03-23T09:20:32;7.80;99.90
19232;DHT22;9750;48.730;10.294;2024-03-23T09:22:59;7.80;99.90
19232;DHT22;9750;48.730;10.294;2024-03-23T09:25:27;7.80;99.90
19232;DHT22;9750;48.730;10.294;2024-03-23T09:27:54;7.70;99.90
19232;DHT22;9750;48.730;10.294;2024-03-23T09:30:21;7.70;99.90
19232;DHT22;9750;48.730;10.294;2024-03-23T09:32:47;7.60;99.90
19232;DHT22;9750;48.730;10.294;2024-03-23T09:35:15;7.50;99.90
19232;DHT22;9750;48.730;10.294;2024-03-23T09:37:41;7.40;99.90
19232;DHT22;9750;48.730;10.294;2024-03-23T09:40:10;7.40;99.90
19232;DHT22;9750;48.730;10.294;2024-03-23T09:42:38;7.30;99.90
19232;DHT22;9750;48.730;10.294;2024-03-23T09:48:23;7.20;99.90
19232;DHT22;9750;48.730;10.294;2024-03-23T09:50:50;7.30;99.90
19232;DHT22;9750;48.730;10.294;2024-03-23T09:53:17;7.20;99.90
19232;DHT22;9750;48.730;10.294;2024-03-23T09:55:51;7.30;99.90
19232;DHT22;9750;48.730;10.294;2024-03-23T09:58:19;7.30;99.90
19232;DHT22;9750;48.730;10.294;2024-03-23T10:00:46;7.20;99.90
19232;DHT22;9750;48.730;10.294;2024-03-23T10:03:13;7.20;99.90
19232;DHT22;9750;48.730;10.294;2024-03-23T10:05:40;7.20;99.90
19232;DHT22;9750;48.730;10.294;2024-03-23T10:08:18;7.20;99.90
19232;DHT22;9750;48.730;10.294;2024-03-23T10:10:45;7.30;99.90
19232;DHT22;9750;48.730;10.294;2024-03-23T10:13:26;7.50;99.90
19232;DHT22;9750;48.730;10.294;2024-03-23T10:15:57;7.60;99.90
19232;DHT22;9750;48.730;10.294;2024-03-23T10:18:25;7.70;99.90
19232;DHT22;9750;48.730;10.294;2024-03-23T10:21:07;7.80;99.90
19232;DHT22;9750;48.730;10.294;2024-03-23T10:23:35;7.70;99.90
19232;DHT22;9750;48.730;10.294;2024-03-23T10:26:13;7.60;99.90
19232;DHT22;9750;48.730;10.294;2024-03-23T10:28:58;7.40;99.90
19232;DHT22;9750;48.730;10.294;2024-03-23T10:31:27;6.90;99.90
19232;DHT22;9750;48.730;10.294;2024-03-23T10:33:54;6.90;99.90
19232;DHT22;9750;48.730;10.294;2024-03-23T10:36:21;7.00;99.90
19232;DHT22;9750;48.730;10.294;2024-03-23T10:38:50;6.90;99.90
19232;DHT22;9750;48.730;10.294;2024-03-23T10:41:17;6.80;99.90
19232;DHT22;9750;48.730;10.294;2024-03-23T10:43:46;6.70;99.90
19232;DHT22;9750;48.730;10.294;2024-03-23T10:46:14;6.70;99.90
19232;DHT22;9750;48.730;10.294;2024-03-23T10:48:41;6.70;99.90
19232;DHT22;9750;48.730;10.294;2024-03-23T10:51:09;6.80;99.90
19232;DHT22;9750;48.730;10.294;2024-03-23T10:53:37;6.80;99.90
19232;DHT22;9750;48.730;10.294;2024-03-23T10:56:04;6.80;99.90
19232;DHT22;9750;48.730;10.294;2024-03-23T10:58:35;6.80;99.90
19232;DHT22;9750;48.730;10.294;2024-03-23T11:01:03;6.90;99.90
19232;DHT22;9750;48.730;10.294;2024-03-23T11:03:36;7.00;99.90
19232;DHT22;9750;48.730;10.294;2024-03-23T11:06:03;7.00;99.90
19232;DHT22;9750;48.730;10.294;2024-03-23T11:08:35;7.00;99.90
19232;DHT22;9750;48.730;10.294;2024-03-23T11:11:20;7.10;99.90
19232;DHT22;9750;48.730;10.294;2024-03-23T11:13:49;7.20;99.90
19232;DHT22;9750;48.730;10.294;2024-03-23T11:16:17;7.20;99.90
19232;DHT22;9750;48.730;10.294;2024-03-23T11:18:45;7.30;99.90
19232;DHT22;9750;48.730;10.294;2024-03-23T11:24:17;7.50;99.90
19232;DHT22;9750;48.730;10.294;2024-03-23T11:26:45;7.60;99.90
19232;DHT22;9750;48.730;10.294;2024-03-23T11:29:13;7.60;99.90
19232;DHT22;9750;48.730;10.294;2024-03-23T11:31:45;7.70;99.90
19232;DHT22;9750;48.730;10.294;2024-03-23T11:34:15;7.80;99.90
19232;DHT22;9750;48.730;10.294;2024-03-23T11:36:42;7.80;99.90
19232;DHT22;9750;48.730;10.294;2024-03-23T11:39:13;7.80;99.90
19232;DHT22;9750;48.730;10.294;2024-03-23T11:41:46;7.90;99.90
19232;DHT22;9750;48.730;10.294;2024-03-23T11:44:17;8.00;99.90
19232;DHT22;9750;48.730;10.294;2024-03-23T11:46:44;8.20;99.90
19232;DHT22;9750;48.730;10.294;2024-03-23T11:49:23;8.30;99.90
19232;DHT22;9750;48.730;10.294;2024-03-23T11:51:51;8.40;99.90
19232;DHT22;9750;48.730;10.294;2024-03-23T11:54:21;8.60;99.90
19232;DHT22;9750;48.730;10.294;2024-03-23T11:56:57;8.60;99.90
19232;DHT22;9750;48.730;10.294;2024-03-23T11:59:31;8.60;99.90
19232;DHT22;9750;48.730;10.294;2024-03-23T12:01:58;8.70;99.90
19232;DHT22;9750;48.730;10.294;2024-03-23T12:04:28;8.60;99.90
19232;DHT22;9750;48.730;10.294;2024-03-23T12:07:14;8.40;99.90
19232;DHT22;9750;48.730;10.294;2024-03-23T12:09:41;8.10;99.90
19232;DHT22;9750;48.730;10.294;2024-03-23T12:12:10;7.80;99.90
19232;DHT22;9750;48.730;10.294;2024-03-23T12:14:38;7.20;99.90
19232;DHT22;9750;48.730;10.294;2024-03-23T12:17:11;6.70;99.90
19232;DHT22;9750;48.730;10.294;2024-03-23T12:19:41;6.40;99.90
19232;DHT22;9750;48.730;10.294;2024-03-23T12:22:07;6.20;99.90
19232;DHT22;9750;48.730;10.294;2024-03-23T12:24:35;6.20;99.90
19232;DHT22;9750;48.730;10.294;2024-03-23T12:27:02;6.40;99.90
19232;DHT22;9750;48.730;10.294;2024-03-23T12:29:30;6.20;99.90
19232;DHT22;9750;48.730;10.294;2024-03-23T12:31:59;6.00;99.90
19232;DHT22;9750;48.730;10.294;2024-03-23T12:34:27;5.90;99.90
19232;DHT22;9750;48.730;10.294;2024-03-23T12:36:54;6.00;99.90
19232;DHT22;9750;48.730;10.294;2024-03-23T12:39:22;6.00;99.90
19232;DHT22;9750;48.730;10.294;2024-03-23T12:41:48;5.90;99.90
19232;DHT22;9750;48.730;10.294;2024-03-23T12:44:15;5.90;99.90
19232;DHT22;9750;48.730;10.294;2024-03-23T12:46:42;5.80;99.90
19232;DHT22;9750;48.730;10.294;2024-03-23T12:49:09;5.80;99.90
19232;DHT22;9750;48.730;10.294;2024-03-23T12:51:36;5.90;99.90
19232;DHT22;9750;48.730;10.294;2024-03-23T12:54:05;6.10;99.90
19232;DHT22;9750;48.730;10.294;2024-03-23T12:56:31;6.20;99.90
19232;DHT22;9750;48.730;10.294;2024-03-23T12:58:58;6.20;99.90
19232;DHT22;9750;48.730;10.294;2024-03-23T13:01:25;6.20;99.90
19232;DHT22;9750;48.730;10.294;2024-03-23T13:03:52;6.30;99.90
19232;DHT22;9750;48.730;10.294;2024-03-23T13:09:41;6.50;99.90
19232;DHT22;9750;48.730;10.294;2024-03-23T13:12:09;6.70;99.90
19232;DHT22;9750;48.730;10.294;2024-03-23T13:14:35;6.80;99.90
19232;DHT22;9750;48.730;10.294;2024-03-23T13:17:03;6.80;99.90
19232;DHT22;9750;48.730;10.294;2024-03-23T13:19:29;6.90;99.90
19232;DHT22;9750;48.730;10.294;2024-03-23T13:21:57;6.90;99.90
19232;DHT22;9750;48.730;10.294;2024-03-23T13:24:24;7.00;99.90
19232;DHT22;9750;48.730;10.294;2024-03-23T13:26:54;7.10;99.90
19232;DHT22;9750;48.730;10.294;2024-03-23T13:29:21;7.10;99.90
19232;DHT22;9750;48.730;10.294;2024-03-23T13:31:50;7.10;99.90
19232;DHT22;9750;48.730;10.294;2024-03-23T13:34:17;7.10;99.90
19232;DHT22;9750;48.730;10.294;2024-03-23T13:36:45;7.10;99.90
19232;DHT22;9750;48.730;10.294;2024-03-23T13:39:12;7.20;99.90
19232;DHT22;9750;48.730;10.294;2024-03-23T13:41:42;7.30;99.90
19232;DHT22;9750;48.730;10.294;2024-03-23T13:44:10;7.30;99.90
19232;DHT22;9750;48.730;10.294;2024-03-23T13:46:38;7.30;99.90
19232;DHT22;9750;48.730;10.294;2024-03-23T13:49:04;7.20;99.90
19232;DHT22;9750;48.730;10.294;2024-03-23T13:51:32;7.20;99.90
19232;DHT22;9750;48.730;10.294;2024-03-23T13:53:58;7.20;99.90
19232;DHT22;9750;48.730;10.294;2024-03-23T13:56:27;7.10;99.90
19232;DHT22;9750;48.730;10.294;2024-03-23T13:58:54;7.10;99.90
19232;DHT22;9750;48.730;10.294;2024-03-23T14:01:23;7.10;99.90
19232;DHT22;9750;48.730;10.294;2024-03-23T14:03:50;7.20;99.90
19232;DHT22;9750;48.730;10.294;2024-03-23T14:06:31;7.30;99.90
19232;DHT22;9750;48.730;10.294;2024-03-23T14:08:57;7.30;99.90
19232;DHT22;9750;48.730;10.294;2024-03-23T14:11:25;7.50;99.90
19232;DHT22;9750;48.730;10.294;2024-03-23T14:13:52;7.70;99.90
19232;DHT22;9750;48.730;10.294;2024-03-23T14:16:20;7.80;99.90
19232;DHT22;9750;48.730;10.294;2024-03-23T14:18:48;7.70;99.90
19232;DHT22;9750;48.730;10.294;2024-03-23T14:21:15;7.60;99.90
19232;DHT22;9750;48.730;10.294;2024-03-23T14:23:41;7.60;99.90
19232;DHT22;9750;48.730;10.294;2024-03-23T14:29:31;7.60;99.90
19232;DHT22;9750;48.730;10.294;2024-03-23T14:32:00;7.70;99.90
19232;DHT22;9750;48.730;10.294;2024-03-23T14:34:27;7.90;99.90
19232;DHT22;9750;48.730;10.294;2024-03-23T14:36:55;8.10;99.90
19232;DHT22;9750;48.730;10.294;2024-03-23T14:39:23;8.20;99.90
19232;DHT22;9750;48.730;10.294;2024-03-23T14:41:50;8.20;99.90
19232;DHT22;9750;48.730;10.294;2024-03-23T14:44:16;8.20;99.90
19232;DHT22;9750;48.730;10.294;2024-03-23T14:46:44;8.20;99.90
19232;DHT22;9750;48.730;10.294;2024-03-23T14:49:15;8.00;99.90
19232;DHT22;9750;48.730;10.294;2024-03-23T14:51:44;8.10;99.90
19232;DHT22;9750;48.730;10.294;2024-03-23T14:54:12;8.20;99.90
19232;DHT22;9750;48.730;10.294;2024-03-23T14:56:40;8.30;99.90
19232;DHT22;9750;48.730;10.294;2024-03-23T14:59:06;8.30;99.90
19232;DHT22;9750;48.730;10.294;2024-03-23T15:01:33;8.40;99.90
19232;DHT22;9750;48.730;10.294;2024-03-23T15:03:59;8.30;99.90
19232;DHT22;9750;48.730;10.294;2024-03-23T15:06:27;8.30;99.90
19232;DHT22;9750;48.730;10.294;2024-03-23T15:08:54;8.30;99.90
19232;DHT22;9750;48.730;10.294;2024-03-23T15:11:22;8.40;99.90
19232;DHT22;9750;48.730;10.294;2024-03-23T15:13:50;8.30;99.90
19232;DHT22;9750;48.730;10.294;2024-03-23T15:16:17;8.40;99.90
19232;DHT22;9750;48.730;10.294;2024-03-23T15:18:45;8.40;99.90
19232;DHT22;9750;48.730;10.294;2024-03-23T15:21:13;8.30;99.90
19232;DHT22;9750;48.730;10.294;2024-03-23T15:23:45;8.30;99.90
19232;DHT22;9750;48.730;10.294;2024-03-23T15:26:14;8.10;99.90
19232;DHT22;9750;48.730;10.294;2024-03-23T15:28:41;7.60;99.90
19232;DHT22;9750;48.730;10.294;2024-03-23T15:31:29;7.20;99.90
19232;DHT22;9750;48.730;10.294;2024-03-23T15:33:55;7.00;99.90
19232;DHT22;9750;48.730;10.294;2024-03-23T15:36:22;6.90;99.90
19232;DHT22;9750;48.730;10.294;2024-03-23T15:38:49;6.80;99.90
19232;DHT22;9750;48.730;10.294;2024-03-23T15:41:17;6.80;99.90
19232;DHT22;9750;48.730;10.294;2024-03-23T15:43:43;6.70;99.90
19232;DHT22;9750;48.730;10.294;2024-03-23T15:46:11;6.80;99.90
19232;DHT22;9750;48.730;10.294;2024-03-23T15:48:37;6.90;99.90
19232;DHT22;9750;48.730;10.294;2024-03-23T15:51:05;6.90;99.90
19232;DHT22;9750;48.730;10.294;2024-03-23T15:53:31;6.90;99.90
19232;DHT22;9750;48.730;10.294;2024-03-23T15:55:59;6.90;99.90
19232;DHT22;9750;48.730;10.294;2024-03-23T15:58:28;6.80;99.90
19232;DHT22;9750;48.730;10.294;2024-03-23T16:00:56;6.80;99.90
19232;DHT22;9750;48.730;10.294;2024-03-23T16:03:22;6.80;99.90
19232;DHT22;9750;48.730;10.294;2024-03-23T16:05:52;6.80;99.90
19232;DHT22;9750;48.730;10.294;2024-03-23T16:08:18;6.80;99.90
19232;DHT22;9750;48.730;10.294;2024-03-23T16:10:46;6.80;99.90
19232;DHT22;9750;48.730;10.294;2024-03-23T16:13:12;6.80;99.90
19232;DHT22;9750;48.730;10.294;2024-03-23T16:15:41;6.80;99.90
19232;DHT22;9750;48.730;10.294;2024-03-23T16:18:07;6.80;99.90
19232;DHT22;9750;48.730;10.294;2024-03-23T16:20:34;6.80;99.90
19232;DHT22;9750;48.730;10.294;2024-03-23T16:23:01;6.80;99.90
19232;DHT22;9750;48.730;10.294;2024-03-23T16:25:28;6.90;99.90
19232;DHT22;9750;48.730;10.294;2024-03-23T16:27:55;6.80;99.90
19232;DHT22;9750;48.730;10.294;2024-03-23T16:30:23;6.90;99.90
19232;DHT22;9750;48.730;10.294;2024-03-23T16:32:51;7.00;99.90
19232;DHT22;9750;48.730;10.294;2024-03-23T16:35:18;7.10;99.90
19232;DHT22;9750;48.730;10.294;2024-03-23T16:37:46;7.10;99.90
19232;DHT22;9750;48.730;10.294;2024-03-23T16:40:14;7.20;99.90
19232;DHT22;9750;48.730;10.294;2024-03-23T16:42:40;7.30;99.90
19232;DHT22;9750;48.730;10.294;2024-03-23T16:45:08;7.30;99.90
19232;DHT22;9750;48.730;10.294;2024-03-23T16:47:34;7.20;99.90
19232;DHT22;9750;48.730;10.294;2024-03-23T16:50:03;7.20;99.90
19232;DHT22;9750;48.730;10.294;2024-03-23T16:52:30;7.20;99.90
19232;DHT22;9750;48.730;10.294;2024-03-23T16:54:57;7.20;99.90
19232;DHT22;9750;48.730;10.294;2024-03-23T16:57:23;7.10;99.90
19232;DHT22;9750;48.730;10.294;2024-03-23T16:59:50;7.10;99.90
19232;DHT22;9750;48.730;10.294;2024-03-23T17:02:17;7.00;99.90
19232;DHT22;9750;48.730;10.294;2024-03-23T17:04:45;6.90;99.90
19232;DHT22;9750;48.730;10.294;2024-03-23T17:07:12;6.90;99.90
19232;DHT22;9750;48.730;10.294;2024-03-23T17:09:47;6.90;99.90